Time;durP1;ratioP1;P1;durP2;ratioP2;P2;SDS_P1;SDS_P2;PMS_P1;PMS_P2;Temp;Humidity;BMP_temperature;BMP_pressure;BME280_temperature;BME280_humidity;BME280_pressure;Samples;Min_cycle;Max_cycle;Signal;HPM_P1;HPM_P2
2024/02/27 07:26:46;;;;;;;18.85;15.65;;;;;;;7.41;64.90;94051.03;6282402;22;20070;-87
2024/02/27 07:29:13;;;;;;;19.00;14.75;;;;;;;7.77;64.23;94044.94;6236256;23;20016;-87
2024/02/27 07:31:39;;;;;;;19.10;14.48;;;;;;;7.62;64.56;94044.25;6242268;23;20015;-87
2024/02/27 07:34:04;;;;;;;18.70;14.60;;;;;;;8.10;63.16;94040.97;6217619;23;20012;-88
2024/02/27 07:36:30;;;;;;;18.52;14.98;;;;;;;7.90;63.73;94046.84;6242533;23;20004;-87
2024/02/27 07:59:27;;;;;;;20.17;15.70;;;;;;;7.99;63.37;94052.66;6288575;22;20006;-87
2024/02/27 08:01:53;;;;;;;23.48;18.10;;;;;;;7.95;64.03;94048.84;6251143;22;20079;-88
2024/02/27 14:44:59;;;;;;;27.80;16.98;;;;;;;9.94;56.98;94157.66;6270283;22;20054;-87
2024/02/27 17:05:32;;;;;;;26.85;18.23;;;;;;;8.86;57.94;94331.31;6249475;22;20023;-87
2024/02/27 17:07:57;;;;;;;27.58;19.00;;;;;;;9.15;57.33;94330.31;6248541;22;20035;-87
2024/02/27 17:10:28;;;;;;;27.23;19.83;;;;;;;8.50;58.94;94332.22;6248728;22;20038;-87
2024/02/27 17:37:27;;;;;;;28.67;19.00;;;;;;;8.85;58.75;94391.13;6289838;22;20066;-86
2024/02/27 17:39:55;;;;;;;28.83;19.60;;;;;;;8.89;57.82;94393.19;6217666;23;20020;-87
2024/02/27 17:42:21;;;;;;;31.70;20.60;;;;;;;9.04;58.30;94389.69;6217939;23;20012;-87
2024/02/27 17:44:47;;;;;;;27.48;18.95;;;;;;;9.46;56.67;94387.97;6168453;23;20014;-87
2024/02/27 17:47:13;;;;;;;30.55;20.00;;;;;;;9.29;56.90;94401.25;6217649;23;20008;-87
2024/02/27 18:15:20;;;;;;;28.55;19.65;;;;;;;9.20;57.20;94421.34;6298278;22;20031;-87
2024/02/27 18:17:50;;;;;;;28.77;19.90;;;;;;;9.45;56.80;94420.94;6252645;22;20015;-87
2024/02/27 18:20:15;;;;;;;31.88;20.65;;;;;;;8.88;57.86;94427.88;6252899;22;20011;-86
2024/02/27 18:22:41;;;;;;;32.38;19.98;;;;;;;9.31;56.85;94420.03;6253163;22;20010;-87
2024/02/27 18:25:07;;;;;;;29.20;20.00;;;;;;;9.12;57.59;94412.91;6252645;22;20007;-88
2024/02/27 19:43:16;;;;;;;29.98;21.05;;;;;;;8.34;60.25;94501.69;6289188;22;20096;-87
2024/02/27 20:05:20;;;;;;;31.88;20.63;;;;;;;8.96;58.98;94496.97;6270265;22;20028;-87
2024/02/27 20:07:46;;;;;;;30.20;21.00;;;;;;;8.69;60.41;94509.66;6248650;22;20020;-87
2024/02/27 20:10:12;;;;;;;36.22;22.73;;;;;;;8.51;60.74;94506.66;6198962;22;20015;-87
2024/02/27 20:12:49;;;;;;;;;;;;;;;;;;;;;
2024/02/27 20:30:34;;;;;;;32.13;22.08;;;;;;;9.13;58.87;94533.84;6275274;22;20020;-86
2024/02/27 20:33:02;;;;;;;31.58;21.45;;;;;;;9.03;58.80;94535.97;6224133;22;20046;-87
2024/02/27 21:13:56;;;;;;;31.83;22.05;;;;;;;9.67;56.67;94572.28;6288031;22;20027;-88
2024/02/27 21:16:22;;;;;;;31.27;22.40;;;;;;;9.54;57.37;94578.16;6247870;22;20049;-88
2024/02/27 21:18:47;;;;;;;30.55;20.80;;;;;;;9.47;57.31;94573.88;6248646;22;20087;-88
2024/02/27 21:21:13;;;;;;;31.50;21.65;;;;;;;9.65;56.88;94573.44;6248242;22;20134;-87
2024/02/27 22:05:30;;;;;;;32.17;21.95;;;;;;;9.14;58.61;94585.56;6286188;22;20015;-87
2024/02/27 22:07:55;;;;;;;31.88;20.77;;;;;;;9.61;56.75;94595.56;6217500;23;20028;-87
2024/02/27 22:10:23;;;;;;;31.70;21.05;;;;;;;9.38;57.40;94583.59;6192821;23;20016;-87
2024/02/27 22:12:49;;;;;;;33.05;22.42;;;;;;;9.36;57.75;94591.53;6192019;23;20000;-87
2024/02/27 22:15:14;;;;;;;34.45;22.17;;;;;;;9.21;57.72;94590.78;6217549;23;20061;-87
2024/02/27 22:17:40;;;;;;;33.30;22.23;;;;;;;9.15;58.52;94601.91;6217336;23;20019;-87
2024/02/27 22:20:06;;;;;;;31.92;22.23;;;;;;;9.18;58.10;94591.97;6217688;23;20007;-87
2024/02/27 22:22:34;;;;;;;33.50;21.40;;;;;;;9.32;57.82;94603.28;6217443;23;20016;-87
2024/02/27 22:24:59;;;;;;;33.25;22.08;;;;;;;9.30;57.69;94591.50;6217426;23;20000;-87
